sensor_id;sensor_type;location;lat;lon;timestamp;P1;durP1;ratioP1;P2;durP2;ratioP2
12800;SDS011;6464;42.494;27.470;2023-11-21T00:02:04;0.13;;;0.13;;
12800;SDS011;6464;42.494;27.470;2023-11-21T00:04:32;0.20;;;0.20;;
12800;SDS011;6464;42.494;27.470;2023-11-21T00:06:59;0.20;;;0.20;;
12800;SDS011;6464;42.494;27.470;2023-11-21T00:09:26;0.30;;;0.30;;
12800;SDS011;6464;42.494;27.470;2023-11-21T00:11:54;0.20;;;0.20;;
12800;SDS011;6464;42.494;27.470;2023-11-21T00:14:21;0.30;;;0.30;;
12800;SDS011;6464;42.494;27.470;2023-11-21T00:16:49;0.20;;;0.20;;
12800;SDS011;6464;42.494;27.470;2023-11-21T00:19:16;0.60;;;0.60;;
12800;SDS011;6464;42.494;27.470;2023-11-21T00:21:44;0.70;;;0.70;;
12800;SDS011;6464;42.494;27.470;2023-11-21T00:24:11;1.10;;;1.10;;
12800;SDS011;6464;42.494;27.470;2023-11-21T00:26:39;0.80;;;0.80;;
12800;SDS011;6464;42.494;27.470;2023-11-21T00:29:08;0.63;;;0.63;;
12800;SDS011;6464;42.494;27.470;2023-11-21T00:31:36;0.50;;;0.50;;
12800;SDS011;6464;42.494;27.470;2023-11-21T00:34:03;0.70;;;0.70;;
12800;SDS011;6464;42.494;27.470;2023-11-21T00:36:31;0.40;;;0.40;;
12800;SDS011;6464;42.494;27.470;2023-11-21T00:38:58;0.37;;;0.37;;
12800;SDS011;6464;42.494;27.470;2023-11-21T00:41:27;0.37;;;0.37;;
12800;SDS011;6464;42.494;27.470;2023-11-21T00:43:54;0.40;;;0.40;;
12800;SDS011;6464;42.494;27.470;2023-11-21T00:46:22;0.30;;;0.30;;
12800;SDS011;6464;42.494;27.470;2023-11-21T00:48:52;0.50;;;0.50;;
12800;SDS011;6464;42.494;27.470;2023-11-21T00:51:19;0.50;;;0.50;;
12800;SDS011;6464;42.494;27.470;2023-11-21T00:53:47;0.70;;;0.70;;
12800;SDS011;6464;42.494;27.470;2023-11-21T00:56:14;0.80;;;0.80;;
12800;SDS011;6464;42.494;27.470;2023-11-21T00:58:41;0.73;;;0.73;;
12800;SDS011;6464;42.494;27.470;2023-11-21T04:01:22;0.80;;;0.80;;
12800;SDS011;6464;42.494;27.470;2023-11-21T04:03:49;0.50;;;0.50;;
12800;SDS011;6464;42.494;27.470;2023-11-21T04:06:16;0.40;;;0.40;;
12800;SDS011;6464;42.494;27.470;2023-11-21T04:08:44;0.10;;;0.10;;
12800;SDS011;6464;42.494;27.470;2023-11-21T04:11:12;0.20;;;0.20;;
12800;SDS011;6464;42.494;27.470;2023-11-21T04:13:40;0.20;;;0.20;;
12800;SDS011;6464;42.494;27.470;2023-11-21T04:16:08;0.20;;;0.20;;
12800;SDS011;6464;42.494;27.470;2023-11-21T04:18:37;0.20;;;0.20;;
12800;SDS011;6464;42.494;27.470;2023-11-21T04:21:05;0.20;;;0.20;;
12800;SDS011;6464;42.494;27.470;2023-11-21T04:23:33;0.20;;;0.20;;
12800;SDS011;6464;42.494;27.470;2023-11-21T04:26:00;0.20;;;0.20;;
12800;SDS011;6464;42.494;27.470;2023-11-21T04:28:28;0.17;;;0.17;;
12800;SDS011;6464;42.494;27.470;2023-11-21T04:30:55;0.30;;;0.30;;
12800;SDS011;6464;42.494;27.470;2023-11-21T04:33:23;0.20;;;0.20;;
12800;SDS011;6464;42.494;27.470;2023-11-21T04:35:52;0.20;;;0.20;;
12800;SDS011;6464;42.494;27.470;2023-11-21T04:38:19;0.13;;;0.13;;
12800;SDS011;6464;42.494;27.470;2023-11-21T04:40:46;0.20;;;0.20;;
12800;SDS011;6464;42.494;27.470;2023-11-21T04:43:13;0.20;;;0.20;;
12800;SDS011;6464;42.494;27.470;2023-11-21T04:45:41;0.20;;;0.20;;
12800;SDS011;6464;42.494;27.470;2023-11-21T04:48:10;0.20;;;0.20;;
12800;SDS011;6464;42.494;27.470;2023-11-21T04:50:37;0.20;;;0.20;;
12800;SDS011;6464;42.494;27.470;2023-11-21T04:53:05;0.30;;;0.30;;
12800;SDS011;6464;42.494;27.470;2023-11-21T04:55:38;0.20;;;0.20;;
12800;SDS011;6464;42.494;27.470;2023-11-21T04:58:05;0.20;;;0.20;;
12800;SDS011;6464;42.494;27.470;2023-11-21T05:00:33;0.20;;;0.20;;
12800;SDS011;6464;42.494;27.470;2023-11-21T05:03:01;0.10;;;0.10;;
12800;SDS011;6464;42.494;27.470;2023-11-21T05:05:29;0.10;;;0.10;;
12800;SDS011;6464;42.494;27.470;2023-11-21T05:07:57;0.20;;;0.20;;
12800;SDS011;6464;42.494;27.470;2023-11-21T05:10:26;0.10;;;0.10;;
12800;SDS011;6464;42.494;27.470;2023-11-21T05:12:54;0.10;;;0.10;;
12800;SDS011;6464;42.494;27.470;2023-11-21T05:15:21;0.10;;;0.10;;
12800;SDS011;6464;42.494;27.470;2023-11-21T05:17:48;0.10;;;0.10;;
12800;SDS011;6464;42.494;27.470;2023-11-21T05:20:17;0.10;;;0.10;;
12800;SDS011;6464;42.494;27.470;2023-11-21T05:22:46;0.20;;;0.20;;
12800;SDS011;6464;42.494;27.470;2023-11-21T05:25:13;0.20;;;0.20;;
12800;SDS011;6464;42.494;27.470;2023-11-21T05:27:43;0.20;;;0.20;;
12800;SDS011;6464;42.494;27.470;2023-11-21T05:30:10;0.10;;;0.10;;
12800;SDS011;6464;42.494;27.470;2023-11-21T05:32:38;0.20;;;0.20;;
12800;SDS011;6464;42.494;27.470;2023-11-21T05:35:05;0.20;;;0.20;;
12800;SDS011;6464;42.494;27.470;2023-11-21T05:37:37;0.30;;;0.30;;
12800;SDS011;6464;42.494;27.470;2023-11-21T05:40:05;0.40;;;0.40;;
12800;SDS011;6464;42.494;27.470;2023-11-21T05:42:33;0.40;;;0.40;;
12800;SDS011;6464;42.494;27.470;2023-11-21T05:45:02;0.40;;;0.40;;
12800;SDS011;6464;42.494;27.470;2023-11-21T05:47:35;0.40;;;0.40;;
12800;SDS011;6464;42.494;27.470;2023-11-21T05:50:04;0.40;;;0.40;;
12800;SDS011;6464;42.494;27.470;2023-11-21T05:52:35;0.40;;;0.40;;
12800;SDS011;6464;42.494;27.470;2023-11-21T05:55:02;0.40;;;0.40;;
12800;SDS011;6464;42.494;27.470;2023-11-21T05:57:32;0.40;;;0.40;;
12800;SDS011;6464;42.494;27.470;2023-11-21T06:00:03;0.40;;;0.40;;
12800;SDS011;6464;42.494;27.470;2023-11-21T06:02:36;0.50;;;0.50;;
12800;SDS011;6464;42.494;27.470;2023-11-21T06:05:04;0.60;;;0.60;;
12800;SDS011;6464;42.494;27.470;2023-11-21T06:07:32;0.50;;;0.50;;
12800;SDS011;6464;42.494;27.470;2023-11-21T06:10:00;0.70;;;0.70;;
12800;SDS011;6464;42.494;27.470;2023-11-21T06:12:31;0.70;;;0.70;;
12800;SDS011;6464;42.494;27.470;2023-11-21T06:15:01;0.80;;;0.80;;
12800;SDS011;6464;42.494;27.470;2023-11-21T06:17:30;1.27;;;1.27;;
12800;SDS011;6464;42.494;27.470;2023-11-21T06:19:58;1.70;;;1.70;;
12800;SDS011;6464;42.494;27.470;2023-11-21T06:22:28;2.00;;;2.00;;
12800;SDS011;6464;42.494;27.470;2023-11-21T06:24:57;1.60;;;1.60;;
12800;SDS011;6464;42.494;27.470;2023-11-21T06:27:24;1.30;;;1.30;;
12800;SDS011;6464;42.494;27.470;2023-11-21T06:29:51;1.60;;;1.60;;
12800;SDS011;6464;42.494;27.470;2023-11-21T06:32:20;1.40;;;1.40;;
12800;SDS011;6464;42.494;27.470;2023-11-21T06:34:48;1.53;;;1.53;;
12800;SDS011;6464;42.494;27.470;2023-11-21T06:37:15;1.40;;;1.40;;
12800;SDS011;6464;42.494;27.470;2023-11-21T06:39:42;1.57;;;1.57;;
12800;SDS011;6464;42.494;27.470;2023-11-21T06:42:09;1.87;;;1.87;;
12800;SDS011;6464;42.494;27.470;2023-11-21T06:44:37;2.10;;;2.10;;
12800;SDS011;6464;42.494;27.470;2023-11-21T06:47:04;1.33;;;1.33;;
12800;SDS011;6464;42.494;27.470;2023-11-21T06:49:33;1.90;;;1.90;;
12800;SDS011;6464;42.494;27.470;2023-11-21T06:52:01;2.00;;;2.00;;
12800;SDS011;6464;42.494;27.470;2023-11-21T06:54:30;1.90;;;1.90;;
12800;SDS011;6464;42.494;27.470;2023-11-21T06:56:58;2.00;;;2.00;;
12800;SDS011;6464;42.494;27.470;2023-11-21T06:59:25;1.80;;;1.80;;
12800;SDS011;6464;42.494;27.470;2023-11-21T07:01:52;2.20;;;2.20;;
12800;SDS011;6464;42.494;27.470;2023-11-21T07:04:19;1.77;;;1.77;;
12800;SDS011;6464;42.494;27.470;2023-11-21T07:06:47;2.00;;;2.00;;
12800;SDS011;6464;42.494;27.470;2023-11-21T07:09:15;2.30;;;2.30;;
12800;SDS011;6464;42.494;27.470;2023-11-21T07:11:42;2.23;;;2.23;;
12800;SDS011;6464;42.494;27.470;2023-11-21T07:14:10;2.80;;;2.80;;
12800;SDS011;6464;42.494;27.470;2023-11-21T07:16:37;3.07;;;3.07;;
12800;SDS011;6464;42.494;27.470;2023-11-21T07:19:05;3.00;;;3.00;;
12800;SDS011;6464;42.494;27.470;2023-11-21T07:21:34;3.53;;;3.53;;
12800;SDS011;6464;42.494;27.470;2023-11-21T07:24:04;4.30;;;4.20;;
12800;SDS011;6464;42.494;27.470;2023-11-21T07:26:32;5.30;;;5.20;;
12800;SDS011;6464;42.494;27.470;2023-11-21T07:29:00;4.00;;;3.90;;
12800;SDS011;6464;42.494;27.470;2023-11-21T07:31:29;3.40;;;3.40;;
12800;SDS011;6464;42.494;27.470;2023-11-21T07:33:56;2.50;;;2.50;;
12800;SDS011;6464;42.494;27.470;2023-11-21T07:36:25;2.50;;;2.50;;
12800;SDS011;6464;42.494;27.470;2023-11-21T07:38:53;3.07;;;3.07;;
12800;SDS011;6464;42.494;27.470;2023-11-21T07:41:21;2.93;;;2.93;;
12800;SDS011;6464;42.494;27.470;2023-11-21T07:43:48;3.47;;;3.47;;
12800;SDS011;6464;42.494;27.470;2023-11-21T07:46:15;3.53;;;3.53;;
12800;SDS011;6464;42.494;27.470;2023-11-21T07:48:45;4.10;;;4.00;;
12800;SDS011;6464;42.494;27.470;2023-11-21T07:51:12;4.50;;;4.40;;
12800;SDS011;6464;42.494;27.470;2023-11-21T07:53:40;4.30;;;4.20;;
12800;SDS011;6464;42.494;27.470;2023-11-21T07:56:07;4.77;;;4.67;;
12800;SDS011;6464;42.494;27.470;2023-11-21T07:58:36;5.50;;;5.40;;
12800;SDS011;6464;42.494;27.470;2023-11-21T08:01:04;5.67;;;5.57;;
12800;SDS011;6464;42.494;27.470;2023-11-21T08:03:35;5.77;;;5.67;;
12800;SDS011;6464;42.494;27.470;2023-11-21T08:06:18;5.20;;;5.10;;
12800;SDS011;6464;42.494;27.470;2023-11-21T08:09:01;6.77;;;6.57;;
12800;SDS011;6464;42.494;27.470;2023-11-21T08:12:18;5.70;;;5.60;;
12800;SDS011;6464;42.494;27.470;2023-11-21T08:14:53;5.30;;;5.20;;
12800;SDS011;6464;42.494;27.470;2023-11-21T08:17:45;5.50;;;5.40;;
12800;SDS011;6464;42.494;27.470;2023-11-21T08:23:04;5.87;;;5.77;;
12800;SDS011;6464;42.494;27.470;2023-11-21T08:30:58;5.70;;;5.60;;
12800;SDS011;6464;42.494;27.470;2023-11-21T08:33:34;6.03;;;5.93;;
12800;SDS011;6464;42.494;27.470;2023-11-21T08:36:08;5.90;;;5.80;;
12800;SDS011;6464;42.494;27.470;2023-11-21T09:09:07;7.40;;;7.20;;
12800;SDS011;6464;42.494;27.470;2023-11-21T09:11:53;9.20;;;8.90;;
12800;SDS011;6464;42.494;27.470;2023-11-21T09:14:27;8.65;;;8.35;;
12800;SDS011;6464;42.494;27.470;2023-11-21T09:16:56;9.18;;;8.88;;
12800;SDS011;6464;42.494;27.470;2023-11-21T09:19:23;8.13;;;7.93;;
12800;SDS011;6464;42.494;27.470;2023-11-21T09:21:51;8.77;;;8.48;;
12800;SDS011;6464;42.494;27.470;2023-11-21T09:24:19;8.80;;;8.50;;
12800;SDS011;6464;42.494;27.470;2023-11-21T09:26:46;7.55;;;7.35;;
12800;SDS011;6464;42.494;27.470;2023-11-21T09:29:13;7.70;;;7.50;;
12800;SDS011;6464;42.494;27.470;2023-11-21T09:31:42;7.72;;;7.53;;
12800;SDS011;6464;42.494;27.470;2023-11-21T09:34:13;7.70;;;7.50;;
12800;SDS011;6464;42.494;27.470;2023-11-21T09:36:44;7.50;;;7.30;;
12800;SDS011;6464;42.494;27.470;2023-11-21T09:39:13;7.70;;;7.50;;
12800;SDS011;6464;42.494;27.470;2023-11-21T09:41:42;7.70;;;7.50;;
12800;SDS011;6464;42.494;27.470;2023-11-21T09:44:13;7.82;;;7.63;;
12800;SDS011;6464;42.494;27.470;2023-11-21T09:46:43;7.70;;;7.50;;
12800;SDS011;6464;42.494;27.470;2023-11-21T09:49:22;7.50;;;7.30;;
12800;SDS011;6464;42.494;27.470;2023-11-21T09:51:52;7.78;;;7.57;;
12800;SDS011;6464;42.494;27.470;2023-11-21T09:54:28;7.80;;;7.60;;
12800;SDS011;6464;42.494;27.470;2023-11-21T09:57:04;7.70;;;7.50;;
12800;SDS011;6464;42.494;27.470;2023-11-21T09:59:34;7.78;;;7.57;;
12800;SDS011;6464;42.494;27.470;2023-11-21T10:02:03;7.72;;;7.53;;
12800;SDS011;6464;42.494;27.470;2023-11-21T10:04:31;7.70;;;7.50;;
12800;SDS011;6464;42.494;27.470;2023-11-21T10:06:58;7.85;;;7.65;;
12800;SDS011;6464;42.494;27.470;2023-11-21T10:09:27;7.90;;;7.70;;
12800;SDS011;6464;42.494;27.470;2023-11-21T10:11:57;7.70;;;7.50;;
12800;SDS011;6464;42.494;27.470;2023-11-21T10:14:28;7.60;;;7.40;;
12800;SDS011;6464;42.494;27.470;2023-11-21T10:16:56;7.40;;;7.20;;
12800;SDS011;6464;42.494;27.470;2023-11-21T10:19:24;7.50;;;7.30;;
12800;SDS011;6464;42.494;27.470;2023-11-21T10:21:56;7.90;;;7.70;;
12800;SDS011;6464;42.494;27.470;2023-11-21T10:24:27;7.63;;;7.43;;
12800;SDS011;6464;42.494;27.470;2023-11-21T10:26:54;7.88;;;7.68;;
12800;SDS011;6464;42.494;27.470;2023-11-21T10:29:21;7.32;;;7.13;;
12800;SDS011;6464;42.494;27.470;2023-11-21T10:31:48;7.50;;;7.30;;
12800;SDS011;6464;42.494;27.470;2023-11-21T10:34:16;7.30;;;7.10;;
12800;SDS011;6464;42.494;27.470;2023-11-21T10:36:44;7.60;;;7.40;;
12800;SDS011;6464;42.494;27.470;2023-11-21T10:39:13;7.47;;;7.28;;
12800;SDS011;6464;42.494;27.470;2023-11-21T10:41:45;7.50;;;7.30;;
12800;SDS011;6464;42.494;27.470;2023-11-21T10:44:13;7.90;;;7.70;;
12800;SDS011;6464;42.494;27.470;2023-11-21T10:46:45;7.20;;;7.00;;
12800;SDS011;6464;42.494;27.470;2023-11-21T10:49:16;7.47;;;7.28;;
12800;SDS011;6464;42.494;27.470;2023-11-21T10:51:44;7.80;;;7.60;;
12800;SDS011;6464;42.494;27.470;2023-11-21T10:54:16;7.90;;;7.70;;
12800;SDS011;6464;42.494;27.470;2023-11-21T10:56:45;7.70;;;7.50;;
12800;SDS011;6464;42.494;27.470;2023-11-21T10:59:16;7.65;;;7.45;;
12800;SDS011;6464;42.494;27.470;2023-11-21T11:01:44;7.50;;;7.30;;
12800;SDS011;6464;42.494;27.470;2023-11-21T11:04:12;7.80;;;7.60;;
12800;SDS011;6464;42.494;27.470;2023-11-21T11:06:42;8.20;;;8.00;;
12800;SDS011;6464;42.494;27.470;2023-11-21T11:09:10;8.15;;;7.93;;
12800;SDS011;6464;42.494;27.470;2023-11-21T11:11:41;8.40;;;8.15;;
12800;SDS011;6464;42.494;27.470;2023-11-21T11:14:11;8.38;;;8.13;;
12800;SDS011;6464;42.494;27.470;2023-11-21T11:16:39;8.10;;;7.90;;
12800;SDS011;6464;42.494;27.470;2023-11-21T11:19:08;8.68;;;8.38;;
12800;SDS011;6464;42.494;27.470;2023-11-21T11:21:38;8.00;;;7.80;;
12800;SDS011;6464;42.494;27.470;2023-11-21T11:27:06;7.72;;;7.53;;
12800;SDS011;6464;42.494;27.470;2023-11-21T11:29:48;8.52;;;8.23;;
12800;SDS011;6464;42.494;27.470;2023-11-21T11:32:31;8.70;;;8.40;;
12800;SDS011;6464;42.494;27.470;2023-11-21T11:35:07;8.63;;;8.32;;
12800;SDS011;6464;42.494;27.470;2023-11-21T11:37:42;8.70;;;8.40;;
12800;SDS011;6464;42.494;27.470;2023-11-21T11:40:11;8.52;;;8.23;;
12800;SDS011;6464;42.494;27.470;2023-11-21T11:42:38;8.77;;;8.48;;
12800;SDS011;6464;42.494;27.470;2023-11-21T11:45:18;8.80;;;8.50;;
12800;SDS011;6464;42.494;27.470;2023-11-21T11:47:45;9.18;;;8.88;;
12800;SDS011;6464;42.494;27.470;2023-11-21T11:50:14;8.60;;;8.30;;
12800;SDS011;6464;42.494;27.470;2023-11-21T11:52:42;8.70;;;8.40;;
12800;SDS011;6464;42.494;27.470;2023-11-21T11:55:10;8.52;;;8.23;;
12800;SDS011;6464;42.494;27.470;2023-11-21T11:57:39;8.55;;;8.25;;
12800;SDS011;6464;42.494;27.470;2023-11-21T12:00:11;8.40;;;8.10;;
12800;SDS011;6464;42.494;27.470;2023-11-21T12:08:03;8.45;;;8.15;;
12800;SDS011;6464;42.494;27.470;2023-11-21T12:10:38;7.90;;;7.70;;
12800;SDS011;6464;42.494;27.470;2023-11-21T12:13:29;7.72;;;7.53;;
12800;SDS011;6464;42.494;27.470;2023-11-21T12:16:11;7.45;;;7.25;;
12800;SDS011;6464;42.494;27.470;2023-11-21T12:18:38;7.35;;;7.15;;
12800;SDS011;6464;42.494;27.470;2023-11-21T12:21:06;7.40;;;7.20;;
12800;SDS011;6464;42.494;27.470;2023-11-21T12:23:38;7.38;;;7.18;;
12800;SDS011;6464;42.494;27.470;2023-11-21T12:26:06;7.25;;;7.05;;
12800;SDS011;6464;42.494;27.470;2023-11-21T12:28:33;7.18;;;6.97;;
12800;SDS011;6464;42.494;27.470;2023-11-21T12:31:04;7.57;;;7.38;;
12800;SDS011;6464;42.494;27.470;2023-11-21T12:33:32;7.68;;;7.47;;
12800;SDS011;6464;42.494;27.470;2023-11-21T12:36:00;7.70;;;7.50;;
12800;SDS011;6464;42.494;27.470;2023-11-21T12:38:33;7.60;;;7.40;;
12800;SDS011;6464;42.494;27.470;2023-11-21T12:41:01;7.63;;;7.43;;
12800;SDS011;6464;42.494;27.470;2023-11-21T12:43:29;7.82;;;7.63;;
12800;SDS011;6464;42.494;27.470;2023-11-21T12:46:04;7.70;;;7.50;;
12800;SDS011;6464;42.494;27.470;2023-11-21T12:48:32;7.90;;;7.70;;
12800;SDS011;6464;42.494;27.470;2023-11-21T12:50:58;7.75;;;7.55;;
12800;SDS011;6464;42.494;27.470;2023-11-21T12:53:27;7.47;;;7.28;;
12800;SDS011;6464;42.494;27.470;2023-11-21T12:56:05;7.60;;;7.40;;
12800;SDS011;6464;42.494;27.470;2023-11-21T12:58:34;7.63;;;7.43;;
12800;SDS011;6464;42.494;27.470;2023-11-21T13:01:01;8.07;;;7.85;;
12800;SDS011;6464;42.494;27.470;2023-11-21T13:03:30;7.68;;;7.47;;
12800;SDS011;6464;42.494;27.470;2023-11-21T13:05:58;7.82;;;7.63;;
12800;SDS011;6464;42.494;27.470;2023-11-21T13:08:26;7.60;;;7.40;;
12800;SDS011;6464;42.494;27.470;2023-11-21T13:10:55;7.70;;;7.50;;
12800;SDS011;6464;42.494;27.470;2023-11-21T13:13:24;8.20;;;8.00;;
12800;SDS011;6464;42.494;27.470;2023-11-21T13:15:54;7.60;;;7.40;;
12800;SDS011;6464;42.494;27.470;2023-11-21T13:18:22;7.80;;;7.60;;
12800;SDS011;6464;42.494;27.470;2023-11-21T13:20:52;7.70;;;7.50;;
12800;SDS011;6464;42.494;27.470;2023-11-21T13:23:20;7.70;;;7.50;;
12800;SDS011;6464;42.494;27.470;2023-11-21T13:25:50;7.70;;;7.50;;
12800;SDS011;6464;42.494;27.470;2023-11-21T20:44:26;0.40;;;0.40;;
12800;SDS011;6464;42.494;27.470;2023-11-21T20:47:40;0.40;;;0.40;;
12800;SDS011;6464;42.494;27.470;2023-11-21T20:50:13;0.40;;;0.40;;
12800;SDS011;6464;42.494;27.470;2023-11-21T20:52:53;1.17;;;1.17;;
12800;SDS011;6464;42.494;27.470;2023-11-21T21:10:28;2.03;;;2.03;;
12800;SDS011;6464;42.494;27.470;2023-11-21T21:21:00;2.30;;;2.30;;
12800;SDS011;6464;42.494;27.470;2023-11-21T21:26:33;2.30;;;2.30;;
12800;SDS011;6464;42.494;27.470;2023-11-21T21:29:17;2.00;;;2.00;;
12800;SDS011;6464;42.494;27.470;2023-11-21T21:34:35;1.43;;;1.43;;
12800;SDS011;6464;42.494;27.470;2023-11-21T21:40:06;1.30;;;1.30;;
12800;SDS011;6464;42.494;27.470;2023-11-21T21:52:03;1.60;;;1.60;;
12800;SDS011;6464;42.494;27.470;2023-11-21T23:16:16;1.90;;;1.90;;
12800;SDS011;6464;42.494;27.470;2023-11-21T23:19:00;2.10;;;2.10;;
12800;SDS011;6464;42.494;27.470;2023-11-21T23:42:07;2.60;;;2.60;;
